Time;durP1;ratioP1;P1;durP2;ratioP2;P2;SDS_P1;SDS_P2;PMS_P1;PMS_P2;Temp;Humidity;BMP_temperature;BMP_pressure;BME280_temperature;BME280_humidity;BME280_pressure;Samples;Min_cycle;Max_cycle;Signal;HPM_P1;HPM_P2
2020/12/11 00:01:07;;;;;;;4.72;3.58;;;22.60;29.70;;;;;;5032026;28;20053;-52
2020/12/11 00:03:33;;;;;;;4.45;3.63;;;22.60;29.70;;;;;;5032793;28;20056;-55
2020/12/11 00:05:59;;;;;;;4.65;3.50;;;22.50;29.70;;;;;;5033700;28;20029;-47
2020/12/11 00:08:24;;;;;;;4.85;3.40;;;22.50;29.70;;;;;;5032799;28;20112;-49
2020/12/11 00:10:50;;;;;;;4.57;3.40;;;22.50;29.70;;;;;;5033418;28;20021;-46
2020/12/11 00:13:16;;;;;;;4.22;3.25;;;22.50;29.70;;;;;;5015315;28;20036;-49
2020/12/11 00:15:42;;;;;;;4.47;3.38;;;22.50;29.70;;;;;;5033377;28;20040;-46
2020/12/11 00:18:07;;;;;;;3.90;3.35;;;22.40;29.70;;;;;;5033146;28;20083;-46
2020/12/11 00:20:33;;;;;;;4.97;3.55;;;22.40;29.80;;;;;;5033333;28;20390;-47
2020/12/11 00:22:59;;;;;;;4.55;3.13;;;22.50;29.80;;;;;;5032557;28;20037;-48
2020/12/11 00:25:25;;;;;;;5.15;3.65;;;22.40;29.80;;;;;;5032101;28;20052;-48
2020/12/11 00:27:50;;;;;;;4.03;3.20;;;22.40;29.80;;;;;;5032904;28;20076;-46
2020/12/11 00:30:16;;;;;;;4.10;3.17;;;22.40;29.70;;;;;;5032740;28;20037;-48
2020/12/11 00:32:42;;;;;;;3.70;3.10;;;22.40;29.80;;;;;;5032994;28;20037;-50
2020/12/11 00:35:08;;;;;;;5.10;3.50;;;22.40;29.80;;;;;;5032596;28;20033;-48
2020/12/11 00:37:35;;;;;;;3.47;2.50;;;22.40;29.80;;;;;;5030610;28;20043;-46
2020/12/11 00:40:01;;;;;;;3.45;2.95;;;22.40;29.80;;;;;;5032412;28;20029;-49
2020/12/11 00:42:27;;;;;;;3.80;2.83;;;22.30;29.80;;;;;;5032234;28;20048;-48
2020/12/11 00:44:53;;;;;;;3.30;2.63;;;22.40;29.90;;;;;;5032249;28;20045;-48
2020/12/11 00:47:18;;;;;;;4.07;3.20;;;22.30;29.80;;;;;;5030363;28;20433;-50
2020/12/11 00:49:44;;;;;;;3.72;2.67;;;22.30;29.90;;;;;;5032787;28;20033;-46
2020/12/11 00:52:10;;;;;;;4.32;3.30;;;22.30;29.90;;;;;;5014917;28;20029;-46
2020/12/11 00:54:42;;;;;;;3.30;2.90;;;22.30;29.90;;;;;;5015153;28;20033;-48
2020/12/11 00:57:08;;;;;;;4.40;2.85;;;22.30;29.90;;;;;;5031830;28;20152;-46
2020/12/11 00:59:33;;;;;;;3.45;2.83;;;22.30;29.90;;;;;;5033771;28;20044;-47
2020/12/11 01:01:59;;;;;;;4.00;2.83;;;22.30;29.90;;;;;;5033040;28;20052;-46
2020/12/11 01:04:25;;;;;;;3.55;2.70;;;22.30;29.90;;;;;;5031570;28;20556;-47
2020/12/11 01:06:51;;;;;;;3.78;2.53;;;22.20;29.90;;;;;;5033039;28;20090;-49
2020/12/11 01:09:16;;;;;;;4.43;2.90;;;22.20;29.90;;;;;;5032738;28;20029;-47
2020/12/11 01:11:42;;;;;;;3.40;2.45;;;22.20;29.90;;;;;;5031061;28;20025;-45
2020/12/11 01:14:08;;;;;;;3.28;2.58;;;22.20;29.90;;;;;;5032350;28;20041;-45
2020/12/11 01:16:34;;;;;;;3.45;2.53;;;22.20;29.90;;;;;;5032759;28;20040;-46
2020/12/11 01:19:00;;;;;;;4.45;3.10;;;22.20;29.90;;;;;;5032919;28;20441;-45
2020/12/11 01:21:25;;;;;;;4.13;2.80;;;22.20;30.00;;;;;;5033915;28;20036;-47
2020/12/11 01:23:51;;;;;;;3.67;2.78;;;22.20;30.00;;;;;;5032842;28;20405;-45
2020/12/11 01:26:17;;;;;;;4.18;2.75;;;22.10;29.90;;;;;;5032566;28;20079;-46
2020/12/11 01:28:43;;;;;;;4.50;2.42;;;22.20;30.00;;;;;;5013316;28;20027;-44
2020/12/11 01:31:09;;;;;;;3.47;2.75;;;22.10;30.00;;;;;;5034370;28;20069;-45
2020/12/11 01:33:34;;;;;;;3.20;2.15;;;22.10;30.00;;;;;;5033532;28;20045;-46
2020/12/11 01:36:00;;;;;;;2.88;2.42;;;22.10;30.00;;;;;;5033719;28;20364;-44
2020/12/11 01:38:26;;;;;;;3.53;2.60;;;22.10;30.00;;;;;;5033820;28;20029;-47
2020/12/11 01:40:51;;;;;;;2.63;2.30;;;22.10;30.00;;;;;;5034030;28;20055;-48
2020/12/11 01:43:20;;;;;;;3.55;2.70;;;22.10;30.00;;;;;;5029834;28;20029;-47
2020/12/11 01:45:47;;;;;;;3.40;2.58;;;22.10;30.00;;;;;;5033177;28;20044;-48
2020/12/11 01:48:13;;;;;;;3.08;2.42;;;22.00;29.90;;;;;;5016413;28;20041;-44
2020/12/11 01:50:39;;;;;;;3.20;2.45;;;22.10;30.00;;;;;;5033624;28;20029;-48
2020/12/11 01:53:05;;;;;;;2.85;2.40;;;22.10;30.00;;;;;;5031269;28;20075;-46
2020/12/11 01:55:32;;;;;;;2.92;2.40;;;22.00;30.00;;;;;;5033768;28;20033;-47
2020/12/11 01:58:02;;;;;;;3.60;2.70;;;22.00;30.00;;;;;;5033575;28;20045;-48
2020/12/11 02:00:28;;;;;;;3.40;2.20;;;22.00;30.00;;;;;;5033784;28;20033;-47
2020/12/11 02:03:07;;;;;;;2.95;2.38;;;22.00;30.00;;;;;;5033575;28;20057;-49
2020/12/11 02:05:33;;;;;;;3.63;2.80;;;22.00;30.00;;;;;;5033785;28;20037;-48
2020/12/11 02:07:59;;;;;;;2.58;2.17;;;22.00;30.00;;;;;;5028630;28;20049;-46
2020/12/11 02:10:26;;;;;;;3.22;2.30;;;22.00;30.00;;;;;;5033927;28;20044;-47
2020/12/11 02:12:52;;;;;;;3.20;2.40;;;22.00;30.00;;;;;;5015923;28;20456;-48
2020/12/11 02:15:17;;;;;;;2.30;2.10;;;22.00;30.00;;;;;;5035188;28;20447;-46
2020/12/11 02:17:43;;;;;;;3.75;2.67;;;21.90;30.00;;;;;;5036635;28;20026;-48
2020/12/11 02:20:09;;;;;;;2.78;2.40;;;21.90;30.00;;;;;;5037403;28;20038;-46
2020/12/11 02:22:35;;;;;;;2.53;2.00;;;21.90;30.00;;;;;;5031262;28;20352;-47
2020/12/11 02:25:02;;;;;;;3.28;2.22;;;21.90;30.00;;;;;;5036673;28;20026;-51
2020/12/11 02:27:28;;;;;;;2.63;2.00;;;21.90;30.00;;;;;;5036277;28;20103;-47
2020/12/11 02:29:54;;;;;;;3.25;2.30;;;21.90;30.00;;;;;;5018750;28;20053;-45
2020/12/11 02:32:21;;;;;;;3.08;2.22;;;21.80;30.00;;;;;;5036783;28;20097;-46
2020/12/11 02:34:47;;;;;;;3.03;2.67;;;21.80;30.00;;;;;;5037399;28;20037;-46
2020/12/11 02:37:13;;;;;;;2.80;2.38;;;21.80;29.90;;;;;;5036153;28;20057;-48
2020/12/11 02:39:40;;;;;;;2.55;1.90;;;21.80;30.00;;;;;;5036435;28;20068;-51
2020/12/11 02:42:07;;;;;;;3.00;2.50;;;21.80;30.00;;;;;;5036153;28;20060;-46
2020/12/11 02:44:33;;;;;;;2.28;1.90;;;21.80;30.00;;;;;;5027515;28;20025;-47
2020/12/11 02:46:59;;;;;;;2.53;2.20;;;21.80;29.90;;;;;;5020577;28;20059;-48
2020/12/11 02:49:25;;;;;;;3.20;1.98;;;21.80;29.90;;;;;;5036807;28;20116;-48
2020/12/11 02:51:51;;;;;;;2.92;2.10;;;21.80;29.90;;;;;;5036207;28;20021;-47
2020/12/11 02:54:17;;;;;;;2.67;1.90;;;21.80;29.90;;;;;;5036645;28;20029;-46
2020/12/11 02:56:42;;;;;;;3.00;2.15;;;21.80;29.90;;;;;;5035949;28;20029;-48
2020/12/11 02:59:08;;;;;;;2.67;2.10;;;21.80;29.90;;;;;;5035696;28;20080;-48
2020/12/11 03:01:34;;;;;;;2.80;2.15;;;21.80;29.90;;;;;;5035946;28;20051;-50
2020/12/11 03:04:00;;;;;;;2.92;2.22;;;21.80;29.90;;;;;;5036046;28;20025;-46
2020/12/11 03:06:32;;;;;;;2.97;2.03;;;21.70;29.80;;;;;;5036439;28;20029;-47
2020/12/11 03:08:59;;;;;;;2.22;1.77;;;21.80;29.80;;;;;;5035946;28;20040;-47
2020/12/11 03:11:26;;;;;;;2.38;2.00;;;21.80;29.90;;;;;;5035840;28;20332;-50
2020/12/11 03:13:52;;;;;;;2.20;2.00;;;21.70;29.90;;;;;;5027079;28;20041;-51
2020/12/11 03:16:18;;;;;;;3.60;2.22;;;21.70;29.80;;;;;;5036337;28;20060;-48
2020/12/11 03:18:45;;;;;;;3.50;2.15;;;21.70;29.80;;;;;;5035617;28;20033;-47
2020/12/11 03:21:11;;;;;;;3.20;2.25;;;21.70;29.80;;;;;;5035480;28;20029;-48
2020/12/11 03:23:37;;;;;;;2.50;2.10;;;21.70;29.80;;;;;;5034965;28;20456;-48
2020/12/11 03:26:03;;;;;;;2.45;1.65;;;21.70;29.80;;;;;;5035137;28;20033;-46
2020/12/11 03:28:30;;;;;;;2.88;2.03;;;21.70;29.80;;;;;;5034544;28;20041;-48
2020/12/11 03:30:56;;;;;;;2.72;2.25;;;21.70;29.90;;;;;;5036188;28;20040;-47
2020/12/11 03:33:22;;;;;;;2.83;2.20;;;21.70;29.90;;;;;;5035183;28;20445;-47
2020/12/11 03:35:48;;;;;;;2.33;1.80;;;21.70;29.90;;;;;;5035960;28;20037;-46
2020/12/11 03:38:13;;;;;;;2.38;1.83;;;21.60;29.90;;;;;;5033304;28;20041;-50
2020/12/11 03:40:39;;;;;;;2.55;2.10;;;21.60;29.90;;;;;;5016695;28;20026;-45
2020/12/11 03:43:05;;;;;;;2.45;1.90;;;21.60;29.90;;;;;;5035460;28;20033;-47
2020/12/11 03:45:31;;;;;;;2.60;2.03;;;21.60;29.90;;;;;;5035618;28;20353;-46
2020/12/11 03:47:57;;;;;;;2.65;2.15;;;21.60;29.90;;;;;;5017667;28;20045;-47
2020/12/11 03:50:22;;;;;;;2.22;1.85;;;21.60;29.90;;;;;;5035156;28;20120;-44
2020/12/11 03:52:48;;;;;;;2.55;1.85;;;21.60;29.90;;;;;;5034578;28;20030;-48
2020/12/11 03:55:14;;;;;;;2.88;2.13;;;21.60;29.90;;;;;;5031822;28;20099;-47
2020/12/11 03:57:40;;;;;;;2.38;1.80;;;21.60;30.00;;;;;;5035701;28;20044;-45
2020/12/11 04:00:05;;;;;;;2.53;1.85;;;21.60;29.90;;;;;;5034865;28;20107;-46
2020/12/11 04:02:36;;;;;;;2.42;1.98;;;21.60;30.00;;;;;;5035586;28;20113;-48
2020/12/11 04:05:06;;;;;;;2.60;2.20;;;21.50;29.90;;;;;;5034526;28;20037;-47
2020/12/11 04:07:32;;;;;;;3.30;2.17;;;21.50;29.90;;;;;;5034234;28;20042;-45
2020/12/11 04:09:58;;;;;;;3.45;1.77;;;21.50;29.90;;;;;;5025393;28;20108;-45
2020/12/11 04:12:24;;;;;;;2.20;1.70;;;21.50;29.90;;;;;;5035132;28;20112;-46
2020/12/11 04:14:49;;;;;;;2.60;1.98;;;21.50;29.90;;;;;;5034697;28;20109;-46
2020/12/11 04:17:15;;;;;;;2.55;2.05;;;21.50;29.90;;;;;;5034868;28;20033;-47
2020/12/11 04:19:41;;;;;;;2.47;2.03;;;21.50;29.90;;;;;;5034717;28;20029;-49
2020/12/11 04:22:07;;;;;;;2.00;1.70;;;21.50;29.90;;;;;;5034289;28;20037;-50
2020/12/11 04:24:32;;;;;;;2.55;2.00;;;21.40;29.90;;;;;;5033251;28;20026;-48
2020/12/11 04:26:58;;;;;;;3.00;2.08;;;21.40;29.90;;;;;;5050723;28;20498;-50
2020/12/11 04:29:24;;;;;;;2.50;2.20;;;21.40;29.90;;;;;;5034387;28;20072;-52
2020/12/11 04:31:58;;;;;;;1.95;1.60;;;21.40;29.90;;;;;;5034140;28;20114;-46
2020/12/11 04:34:24;;;;;;;2.08;1.80;;;21.40;29.90;;;;;;5034417;28;20064;-48
2020/12/11 04:36:53;;;;;;;2.40;1.90;;;21.50;29.90;;;;;;5034792;28;20040;-49
2020/12/11 04:39:20;;;;;;;2.20;1.70;;;21.40;29.90;;;;;;5013978;28;20033;-48
2020/12/11 04:41:46;;;;;;;2.00;1.80;;;21.40;29.90;;;;;;5034263;28;20033;-45
2020/12/11 04:44:12;;;;;;;2.72;1.83;;;21.40;29.90;;;;;;5034141;28;20060;-47
2020/12/11 04:46:39;;;;;;;2.80;2.10;;;21.40;29.90;;;;;;5034944;28;20037;-46
2020/12/11 04:49:06;;;;;;;1.88;1.67;;;21.40;29.90;;;;;;5034170;28;20364;-49
2020/12/11 04:51:33;;;;;;;2.65;2.03;;;21.40;29.90;;;;;;5034643;28;20036;-48
2020/12/11 04:54:01;;;;;;;2.60;1.90;;;21.40;29.90;;;;;;5033251;28;20344;-44
2020/12/11 04:56:27;;;;;;;1.80;1.60;;;21.40;29.90;;;;;;5034000;28;20140;-45
2020/12/11 04:58:54;;;;;;;1.80;1.60;;;21.40;29.90;;;;;;5034316;28;20119;-46
2020/12/11 05:01:38;;;;;;;2.15;1.80;;;21.40;29.90;;;;;;5034243;28;20044;-45
2020/12/11 05:04:04;;;;;;;2.25;2.00;;;21.30;29.90;;;;;;5032734;28;20068;-46
2020/12/11 05:06:30;;;;;;;2.20;1.88;;;21.30;29.90;;;;;;5034501;28;20064;-44
2020/12/11 05:09:17;;;;;;;1.90;1.60;;;21.30;29.80;;;;;;5033851;28;20025;-46
2020/12/11 05:11:44;;;;;;;2.53;1.98;;;21.30;29.80;;;;;;5033883;28;20453;-50
2020/12/11 05:14:24;;;;;;;2.55;1.90;;;21.30;29.80;;;;;;5034062;28;20122;-47
2020/12/11 05:17:01;;;;;;;2.30;2.10;;;21.30;29.80;;;;;;5017479;28;20461;-47
2020/12/11 05:19:28;;;;;;;2.28;1.80;;;21.30;29.80;;;;;;5033314;28;20033;-48
2020/12/11 05:22:06;;;;;;;2.20;1.83;;;21.30;29.80;;;;;;5034141;28;20167;-46
2020/12/11 05:24:43;;;;;;;2.38;1.90;;;21.30;29.80;;;;;;5028441;28;20116;-48
2020/12/11 05:27:40;;;;;;;1.75;1.65;;;21.30;29.80;;;;;;5017507;28;20393;-45
2020/12/11 05:30:15;;;;;;;2.40;2.10;;;21.20;29.70;;;;;;5033824;28;20535;-45
2020/12/11 05:32:46;;;;;;;1.92;1.60;;;21.30;29.80;;;;;;5033959;28;20048;-47
2020/12/11 05:35:15;;;;;;;2.63;1.80;;;21.30;29.80;;;;;;5033807;28;20441;-45
2020/12/11 05:38:09;;;;;;;2.53;1.88;;;21.30;30.30;;;;;;5033913;28;20464;-46
2020/12/11 05:40:40;;;;;;;2.25;1.80;;;21.20;29.80;;;;;;5008502;28;20069;-47
2020/12/11 05:43:14;;;;;;;2.70;1.98;;;21.20;29.80;;;;;;5033620;28;20061;-45
2020/12/11 05:45:46;;;;;;;2.10;1.90;;;21.20;29.80;;;;;;5033114;28;20037;-48
2020/12/11 05:48:12;;;;;;;2.30;2.05;;;21.20;29.90;;;;;;5033331;28;20056;-44
2020/12/11 05:50:38;;;;;;;2.58;1.88;;;21.20;29.90;;;;;;5035399;28;20423;-45
2020/12/11 05:53:03;;;;;;;2.20;1.90;;;21.20;29.90;;;;;;5037772;28;20038;-45
2020/12/11 05:55:29;;;;;;;2.40;2.20;;;21.20;29.90;;;;;;5021433;28;20061;-48
2020/12/11 05:57:57;;;;;;;2.10;1.90;;;21.20;29.90;;;;;;5037032;28;20026;-47
2020/12/11 06:00:24;;;;;;;2.20;1.98;;;21.20;29.90;;;;;;5037876;28;20047;-49
2020/12/11 06:02:51;;;;;;;1.90;1.70;;;21.20;29.90;;;;;;5037104;28;20025;-47
2020/12/11 06:05:18;;;;;;;2.53;2.03;;;21.20;29.90;;;;;;5037598;28;20029;-49
2020/12/11 06:07:45;;;;;;;1.98;1.75;;;21.20;29.90;;;;;;5036127;28;20453;-47
2020/12/11 06:10:20;;;;;;;2.30;2.00;;;21.10;29.90;;;;;;5037702;28;20330;-49
2020/12/11 06:12:46;;;;;;;2.45;1.88;;;21.20;29.90;;;;;;5036543;28;20337;-47
2020/12/11 06:15:21;;;;;;;2.10;1.63;;;21.10;29.90;;;;;;5036023;28;20474;-48
2020/12/11 06:18:08;;;;;;;2.40;1.85;;;21.10;29.90;;;;;;5037445;28;20552;-45
2020/12/11 06:20:35;;;;;;;2.28;1.85;;;21.10;29.90;;;;;;5037045;28;20459;-46
2020/12/11 06:23:19;;;;;;;1.98;1.80;;;21.10;29.90;;;;;;5035084;28;20088;-47
2020/12/11 06:26:03;;;;;;;;;;;21.10;29.80;;;;;;5022603;28;20508;-49
2020/12/11 06:28:38;;;;;;;2.58;1.77;;;21.00;29.80;;;;;;5035973;28;19964;-47
2020/12/11 06:31:12;;;;;;;1.55;1.42;;;21.10;29.90;;;;;;5018044;28;20046;-47
2020/12/11 06:33:41;;;;;;;1.60;1.50;;;21.00;29.90;;;;;;5034230;28;20029;-45
2020/12/11 06:36:07;;;;;;;1.88;1.70;;;21.00;29.90;;;;;;5035828;28;20049;-48
2020/12/11 06:39:05;;;;;;;2.10;1.90;;;21.00;29.90;;;;;;5037190;28;20090;-47
2020/12/11 06:41:33;;;;;;;3.15;2.08;;;21.00;29.80;;;;;;5013561;28;20128;-48
2020/12/11 06:44:14;;;;;;;2.17;1.70;;;21.00;29.80;;;;;;5033555;28;20033;-47
2020/12/11 06:46:40;;;;;;;2.67;1.90;;;21.00;29.80;;;;;;5025584;28;20054;-47
2020/12/11 06:49:12;;;;;;;2.15;1.90;;;21.00;29.80;;;;;;5035781;28;20037;-48
2020/12/11 06:51:47;;;;;;;2.00;1.50;;;21.00;29.80;;;;;;5036281;28;20083;-45
2020/12/11 06:54:33;;;;;;;1.98;1.70;;;21.00;29.80;;;;;;5036081;28;20029;-47
2020/12/11 06:57:00;;;;;;;2.15;1.95;;;21.00;29.80;;;;;;5036238;28;20037;-48
2020/12/11 06:59:27;;;;;;;2.30;1.80;;;21.00;29.80;;;;;;5035242;28;20394;-45
2020/12/11 07:02:03;;;;;;;1.85;1.50;;;21.00;29.90;;;;;;5018482;28;20035;-47
2020/12/11 07:04:45;;;;;;;2.42;1.70;;;21.00;29.90;;;;;;5034194;28;20057;-44
2020/12/11 07:07:12;;;;;;;2.15;1.90;;;21.00;29.90;;;;;;5036557;28;20045;-44
2020/12/11 07:09:43;;;;;;;2.05;1.70;;;21.00;29.90;;;;;;5035764;28;20048;-44
2020/12/11 07:12:09;;;;;;;1.98;1.77;;;21.00;29.80;;;;;;5035791;28;20033;-48
2020/12/11 07:14:35;;;;;;;1.95;1.52;;;21.00;29.80;;;;;;5036051;28;20029;-49
2020/12/11 07:17:02;;;;;;;2.25;1.95;;;21.00;29.80;;;;;;5035784;28;20106;-46
2020/12/11 07:19:38;;;;;;;2.17;1.88;;;20.90;29.80;;;;;;5033776;28;20429;-50
2020/12/11 07:22:05;;;;;;;2.30;1.95;;;21.00;29.90;;;;;;5036133;28;20038;-48
2020/12/11 07:24:35;;;;;;;2.15;1.80;;;20.90;29.80;;;;;;5018051;28;20353;-51
2020/12/11 07:27:02;;;;;;;2.28;1.85;;;20.90;29.80;;;;;;5034586;28;20088;-48
2020/12/11 07:29:27;;;;;;;2.10;1.80;;;20.90;29.80;;;;;;5035657;28;20092;-47
2020/12/11 07:31:55;;;;;;;2.13;1.92;;;20.90;29.80;;;;;;5035783;28;20069;-47
2020/12/11 07:34:23;;;;;;;1.88;1.73;;;20.90;29.80;;;;;;5036090;28;20033;-50
2020/12/11 07:37:00;;;;;;;2.97;1.90;;;20.90;29.80;;;;;;5031605;28;20025;-48
2020/12/11 07:39:30;;;;;;;1.45;1.35;;;20.90;30.00;;;;;;5030292;28;20421;-56
2020/12/11 07:42:00;;;;;;;1.95;1.50;;;21.00;30.80;;;;;;5033920;28;20039;-56
2020/12/11 07:44:29;;;;;;;2.75;1.25;;;21.10;31.40;;;;;;5035397;28;20104;-59
2020/12/11 07:46:57;;;;;;;1.80;1.50;;;21.20;32.00;;;;;;5035115;28;20044;-57
2020/12/11 07:49:40;;;;;;;1.88;1.40;;;21.40;32.20;;;;;;5049002;28;20032;-55
2020/12/11 07:52:07;;;;;;;2.15;1.50;;;21.60;32.30;;;;;;5035461;28;20360;-58
2020/12/11 07:54:43;;;;;;;3.85;1.52;;;21.70;32.00;;;;;;5034207;28;20057;-51
2020/12/11 07:57:20;;;;;;;2.00;1.48;;;21.80;31.90;;;;;;5031587;28;20155;-51
2020/12/11 08:00:00;;;;;;;4.47;1.30;;;21.90;31.80;;;;;;5036265;28;20025;-47
2020/12/11 08:02:27;;;;;;;1.63;1.25;;;21.90;31.60;;;;;;5030837;28;20040;-48
2020/12/11 08:04:53;;;;;;;1.90;1.20;;;21.90;31.50;;;;;;5033059;28;20049;-47
2020/12/11 08:07:25;;;;;;;1.63;1.30;;;21.80;31.30;;;;;;5031659;28;20049;-49
2020/12/11 08:09:51;;;;;;;2.47;1.38;;;21.80;31.20;;;;;;5034437;28;20120;-43
2020/12/11 08:12:19;;;;;;;2.75;1.35;;;21.80;31.10;;;;;;5028341;28;20041;-50
2020/12/11 08:14:45;;;;;;;1.83;1.45;;;21.70;31.00;;;;;;5033376;28;20085;-51
2020/12/11 08:17:13;;;;;;;3.10;1.45;;;21.70;31.00;;;;;;5031035;28;20112;-53
2020/12/11 08:19:39;;;;;;;1.77;1.55;;;21.70;31.60;;;;;;5031643;28;20448;-47
2020/12/11 08:22:15;;;;;;;1.50;1.17;;;21.70;30.80;;;;;;5033319;28;20037;-48
2020/12/11 08:24:45;;;;;;;2.08;1.52;;;21.70;30.70;;;;;;5033105;28;20349;-49
2020/12/11 08:27:24;;;;;;;2.25;1.67;;;21.80;30.70;;;;;;5030700;28;20053;-48
2020/12/11 08:30:06;;;;;;;3.55;1.15;;;21.80;30.60;;;;;;5032745;28;20081;-45
2020/12/11 08:32:31;;;;;;;3.15;1.58;;;21.80;30.60;;;;;;5028688;28;20098;-48
2020/12/11 08:34:57;;;;;;;2.00;1.80;;;21.80;30.50;;;;;;5031508;28;20429;-44
2020/12/11 08:37:25;;;;;;;2.17;1.48;;;21.90;30.60;;;;;;5031704;28;20464;-49
2020/12/11 08:40:03;;;;;;;2.05;1.27;;;21.90;30.60;;;;;;5033754;28;20105;-51
2020/12/11 08:42:34;;;;;;;2.22;1.42;;;22.00;30.60;;;;;;5032607;28;20445;-46
2020/12/11 08:50:33;;;;;;;2.72;1.38;;;22.10;30.30;;;;;;5034777;28;20082;-44
2020/12/11 08:53:04;;;;;;;1.55;1.15;;;22.10;30.20;;;;;;5032591;28;20381;-45
2020/12/11 08:55:30;;;;;;;1.23;0.93;;;22.20;30.10;;;;;;5027685;28;20037;-44
2020/12/11 08:57:56;;;;;;;1.30;1.20;;;22.20;30.00;;;;;;5034589;28;20064;-44
2020/12/11 09:00:22;;;;;;;1.60;1.10;;;22.30;30.00;;;;;;5034773;28;20416;-45
2020/12/11 09:02:48;;;;;;;1.17;1.08;;;22.30;29.90;;;;;;5034223;28;20032;-47
2020/12/11 09:05:13;;;;;;;1.27;1.00;;;22.40;30.30;;;;;;5034591;28;20029;-43
2020/12/11 09:07:39;;;;;;;1.80;1.20;;;22.40;29.80;;;;;;5034506;28;20046;-45
2020/12/11 09:10:06;;;;;;;2.08;1.48;;;22.50;29.70;;;;;;5034479;28;20060;-43
2020/12/11 09:12:34;;;;;;;1.25;1.10;;;22.60;29.70;;;;;;5034390;28;20112;-45
2020/12/11 09:14:59;;;;;;;1.70;1.10;;;22.60;29.60;;;;;;5032742;28;20329;-44
2020/12/11 09:17:25;;;;;;;1.10;1.00;;;22.70;29.60;;;;;;5034444;28;20032;-43
2020/12/11 09:19:51;;;;;;;2.05;0.90;;;22.80;29.50;;;;;;5033159;28;20029;-44
2020/12/11 09:22:17;;;;;;;1.77;1.15;;;22.80;29.50;;;;;;5032337;28;20042;-44
2020/12/11 09:24:42;;;;;;;1.23;1.05;;;22.90;29.50;;;;;;5029423;28;20030;-44
2020/12/11 09:27:11;;;;;;;1.20;1.00;;;22.90;29.40;;;;;;5018453;28;20452;-47
2020/12/11 09:29:41;;;;;;;1.60;1.10;;;23.00;29.40;;;;;;5017528;28;20064;-44
2020/12/11 09:32:07;;;;;;;2.25;1.33;;;23.00;29.30;;;;;;4998837;28;20065;-46
2020/12/11 09:34:34;;;;;;;1.35;0.93;;;23.10;29.30;;;;;;5005870;28;20022;-47
2020/12/11 09:37:04;;;;;;;0.80;0.70;;;23.20;29.20;;;;;;5002472;28;20038;-46
2020/12/11 09:39:30;;;;;;;3.60;1.00;;;23.20;29.10;;;;;;5001204;28;20068;-48
2020/12/11 09:50:54;;;;;;;1.60;1.10;;;23.40;29.00;;;;;;4998757;28;20430;-47
2020/12/11 09:53:01;;;;;;;1.85;1.02;;;23.40;28.90;;;;;;4988019;28;20050;-45
2020/12/11 09:55:34;;;;;;;1.40;0.93;;;23.40;28.90;;;;;;4998592;28;20034;-44
2020/12/11 09:58:00;;;;;;;1.88;1.30;;;23.50;28.80;;;;;;4998879;28;20100;-45
2020/12/11 10:00:26;;;;;;;1.20;1.10;;;23.50;28.80;;;;;;4999088;28;20054;-45
2020/12/11 10:05:19;;;;;;;1.20;1.10;;;23.50;28.70;;;;;;5014759;28;20109;-46
2020/12/11 10:07:47;;;;;;;1.13;0.90;;;23.50;28.60;;;;;;5004956;28;20362;-50
2020/12/11 10:10:15;;;;;;;1.40;1.15;;;23.50;28.60;;;;;;4998479;28;20056;-48
2020/12/11 10:12:41;;;;;;;1.02;0.93;;;23.60;28.60;;;;;;4998244;28;20085;-51
2020/12/11 10:15:08;;;;;;;0.80;0.80;;;23.60;28.70;;;;;;5007676;28;20441;-49
2020/12/11 10:17:34;;;;;;;1.13;0.90;;;23.60;28.70;;;;;;5016981;28;20060;-45
2020/12/11 10:20:00;;;;;;;1.75;1.17;;;23.60;28.70;;;;;;5014219;28;20477;-48
2020/12/11 10:22:26;;;;;;;2.38;1.02;;;23.60;28.70;;;;;;5016808;28;20031;-45
2020/12/11 10:24:52;;;;;;;1.55;1.00;;;23.60;28.80;;;;;;5017355;28;20053;-45
2020/12/11 10:27:18;;;;;;;1.30;1.10;;;23.60;28.80;;;;;;5016449;28;20069;-48
2020/12/11 10:29:43;;;;;;;1.10;1.00;;;23.60;28.80;;;;;;5017868;28;20033;-46
2020/12/11 10:32:09;;;;;;;1.80;1.20;;;23.60;28.80;;;;;;5034061;28;20033;-49
2020/12/11 10:34:35;;;;;;;1.55;1.20;;;23.60;28.80;;;;;;5027761;28;20388;-44
2020/12/11 10:37:11;;;;;;;1.65;1.13;;;23.60;28.80;;;;;;5030521;28;20436;-46
2020/12/11 10:39:39;;;;;;;3.05;1.15;;;23.60;28.70;;;;;;5023620;28;20029;-49
2020/12/11 10:42:05;;;;;;;1.63;1.20;;;23.60;28.70;;;;;;5046042;28;20475;-50
2020/12/11 10:44:31;;;;;;;1.73;1.10;;;23.60;28.70;;;;;;5035305;28;20057;-46
2020/12/11 10:46:56;;;;;;;1.83;1.20;;;23.60;28.70;;;;;;5031034;28;20056;-48
2020/12/11 10:49:22;;;;;;;1.02;0.80;;;23.60;28.70;;;;;;5035181;28;20120;-46
2020/12/11 10:51:49;;;;;;;1.13;0.98;;;23.60;28.70;;;;;;5039917;28;20044;-51
2020/12/11 10:54:17;;;;;;;1.58;1.40;;;23.60;28.70;;;;;;5037269;28;20040;-45
2020/12/11 10:56:44;;;;;;;1.60;1.20;;;23.60;28.80;;;;;;5033954;28;20033;-50
2020/12/11 10:59:15;;;;;;;1.20;1.10;;;23.60;28.90;;;;;;5032964;28;20491;-49
2020/12/11 11:01:44;;;;;;;2.08;1.38;;;23.60;28.90;;;;;;5032634;28;20030;-50
2020/12/11 11:04:10;;;;;;;1.65;1.15;;;23.60;28.90;;;;;;5043414;28;20025;-57
2020/12/11 11:06:41;;;;;;;1.95;1.30;;;23.60;28.90;;;;;;5032901;28;20353;-49
2020/12/11 11:24:42;;;;;;;1.60;1.20;;;23.50;29.00;;;;;;5034795;28;20041;-54
2020/12/11 11:29:34;;;;;;;2.40;1.10;;;23.40;29.00;;;;;;4996398;28;660462;-51
2020/12/11 11:32:00;;;;;;;1.08;0.90;;;23.40;29.10;;;;;;5008602;28;20022;-52
2020/12/11 11:34:26;;;;;;;1.98;1.27;;;23.40;29.20;;;;;;5003420;28;20038;-48
2020/12/11 11:36:53;;;;;;;1.60;1.13;;;23.40;29.20;;;;;;5000662;28;20030;-55
2020/12/11 11:39:19;;;;;;;1.38;1.00;;;23.40;29.20;;;;;;5004861;28;20034;-55
2020/12/11 11:41:46;;;;;;;1.25;1.05;;;23.40;29.10;;;;;;5006185;28;20022;-53
2020/12/11 11:46:39;;;;;;;1.20;1.10;;;23.40;29.10;;;;;;5011415;28;20120;-52
2020/12/11 11:49:04;;;;;;;1.98;1.13;;;23.40;29.10;;;;;;5004135;28;20121;-49
2020/12/11 11:51:44;;;;;;;1.40;0.90;;;23.40;29.00;;;;;;5002311;28;20031;-53
2020/12/11 11:54:10;;;;;;;1.17;0.82;;;23.40;29.00;;;;;;5002476;28;21135;-56
2020/12/11 11:56:35;;;;;;;1.00;0.90;;;23.30;29.00;;;;;;5005550;28;20030;-50
2020/12/11 11:59:01;;;;;;;1.33;0.95;;;23.30;29.00;;;;;;5000153;28;20065;-47
2020/12/11 12:01:27;;;;;;;1.83;1.02;;;23.30;29.00;;;;;;5009299;28;20045;-49
2020/12/11 12:03:52;;;;;;;1.55;1.00;;;23.30;29.00;;;;;;5003127;28;20088;-54
2020/12/11 12:06:22;;;;;;;1.38;1.05;;;23.30;29.50;;;;;;5001740;28;20101;-51
2020/12/11 12:08:48;;;;;;;0.90;0.88;;;23.30;29.10;;;;;;5005651;28;20113;-53
2020/12/11 12:11:14;;;;;;;2.40;0.70;;;23.30;29.60;;;;;;5008017;28;20049;-51
2020/12/11 12:13:40;;;;;;;1.08;0.80;;;23.30;29.10;;;;;;5014690;28;20080;-50
2020/12/11 12:16:06;;;;;;;1.55;1.13;;;23.30;29.10;;;;;;5013075;28;20501;-52
2020/12/11 12:18:32;;;;;;;1.10;0.88;;;23.30;29.10;;;;;;4995683;28;20394;-51
2020/12/11 12:21:03;;;;;;;1.58;1.00;;;23.20;29.10;;;;;;5012853;28;20034;-54
2020/12/11 12:28:54;;;;;;;0.95;0.88;;;23.20;29.10;;;;;;5010035;28;20052;-57
2020/12/11 12:31:26;;;;;;;1.10;1.00;;;23.20;29.10;;;;;;5032218;28;20060;-49
2020/12/11 12:39:33;;;;;;;1.00;0.90;;;23.20;29.50;;;;;;5030117;28;20048;-54
2020/12/11 12:44:37;;;;;;;1.42;1.00;;;23.20;29.40;;;;;;5032309;28;20280;-55
2020/12/11 12:47:03;;;;;;;2.13;1.23;;;23.20;29.40;;;;;;5031388;28;20067;-50
2020/12/11 12:49:29;;;;;;;1.45;1.00;;;23.20;29.50;;;;;;5032571;28;20029;-52
2020/12/11 12:51:55;;;;;;;2.15;1.05;;;23.20;29.50;;;;;;5032279;28;20083;-47
2020/12/11 12:54:21;;;;;;;2.08;0.90;;;23.20;29.70;;;;;;5032888;28;20037;-55
2020/12/11 12:56:52;;;;;;;1.92;1.08;;;23.20;29.80;;;;;;5012776;28;20120;-57
2020/12/11 12:59:34;;;;;;;1.25;1.08;;;23.30;29.90;;;;;;5028967;28;20029;-62
2020/12/11 13:04:39;;;;;;;1.02;0.93;;;23.40;29.90;;;;;;5031446;28;20037;-59
2020/12/11 13:07:06;;;;;;;1.45;1.08;;;23.40;29.90;;;;;;5014168;28;20095;-60
2020/12/11 13:09:33;;;;;;;1.70;1.08;;;23.50;29.90;;;;;;5031110;28;20353;-55
2020/12/11 13:11:59;;;;;;;2.92;1.17;;;23.50;29.50;;;;;;5034273;28;20041;-49
2020/12/11 13:14:25;;;;;;;1.60;0.70;;;23.50;29.40;;;;;;5034283;28;20048;-51
2020/12/11 13:16:51;;;;;;;1.13;0.85;;;23.50;29.40;;;;;;5029021;28;20083;-47
2020/12/11 13:19:19;;;;;;;0.98;0.88;;;23.60;29.30;;;;;;4997398;28;20026;-47
2020/12/11 13:22:10;;;;;;;0.98;0.88;;;23.60;29.30;;;;;;5014462;28;20030;-52
2020/12/11 13:27:25;;;;;;;1.70;0.90;;;23.80;29.30;;;;;;5014739;28;20095;-51
2020/12/11 13:29:51;;;;;;;1.23;0.90;;;23.80;29.30;;;;;;5011454;28;20082;-49
2020/12/11 13:32:20;;;;;;;1.00;0.70;;;23.80;29.20;;;;;;4978436;28;20026;-49
2020/12/11 13:34:47;;;;;;;0.93;0.63;;;23.80;29.20;;;;;;5002944;28;20045;-51
2020/12/11 13:37:13;;;;;;;1.17;0.70;;;23.90;29.20;;;;;;5014548;28;20030;-56
2020/12/11 13:39:39;;;;;;;1.02;0.70;;;23.90;29.10;;;;;;5014458;28;20026;-52
2020/12/11 13:42:05;;;;;;;1.20;0.80;;;23.90;29.10;;;;;;5014560;28;20456;-53
2020/12/11 13:44:34;;;;;;;1.10;0.70;;;24.00;29.10;;;;;;5012093;28;20032;-56
2020/12/11 13:47:04;;;;;;;3.80;1.00;;;24.00;29.00;;;;;;5012530;28;20048;-56
2020/12/11 13:49:31;;;;;;;3.13;0.90;;;24.00;29.10;;;;;;5009813;28;20120;-59